Time;durP1;ratioP1;P1;durP2;ratioP2;P2;SDS_P1;SDS_P2;PMS_P1;PMS_P2;Temp;Humidity;BMP_temperature;BMP_pressure;BME280_temperature;BME280_humidity;BME280_pressure;Samples;Min_cycle;Max_cycle;Signal;HPM_P1;HPM_P2
2023/06/23 00:00:28;;;;;;;11.10;7.68;;;;;;;;;;5094033;28;20500;-75
2023/06/23 00:02:57;;;;;;;10.88;7.75;;;;;;;;;;5093837;28;20412;-75
2023/06/23 00:05:25;;;;;;;12.80;8.93;;;;;;;;;;5093911;28;20508;-75
2023/06/23 00:07:51;;;;;;;10.63;8.30;;;;;;;;;;5093659;28;20119;-75
2023/06/23 00:10:18;;;;;;;12.48;9.30;;;;;;;;;;5093909;28;20040;-75
2023/06/23 00:12:44;;;;;;;11.02;9.15;;;;;;;;;;5076756;28;20545;-75
2023/06/23 00:15:10;;;;;;;11.65;9.40;;;;;;;;;;5093586;28;20036;-75
2023/06/23 00:17:37;;;;;;;13.05;9.82;;;;;;;;;;5093544;28;20435;-75
2023/06/23 00:20:08;;;;;;;13.40;9.38;;;;;;;;;;5093840;28;20090;-76
2023/06/23 00:22:35;;;;;;;14.80;9.93;;;;;;;;;;5093543;28;20087;-75
2023/06/23 00:25:02;;;;;;;11.98;8.55;;;;;;;;;;5093442;28;20051;-75
2023/06/23 00:27:28;;;;;;;13.32;10.38;;;;;;;;;;5093060;28;20040;-75
2023/06/23 00:29:55;;;;;;;14.70;11.15;;;;;;;;;;5093588;28;20040;-75
2023/06/23 00:32:21;;;;;;;13.75;10.82;;;;;;;;;;5093575;28;20043;-76
2023/06/23 00:34:47;;;;;;;14.93;10.77;;;;;;;;;;5093186;28;20131;-75
2023/06/23 00:37:13;;;;;;;17.42;12.07;;;;;;;;;;5093156;28;20133;-75
2023/06/23 00:39:41;;;;;;;12.90;10.18;;;;;;;;;;5068955;28;20044;-75
2023/06/23 00:42:07;;;;;;;16.27;11.98;;;;;;;;;;5086750;28;20077;-75
2023/06/23 00:44:34;;;;;;;19.00;13.65;;;;;;;;;;5076290;28;20447;-75
2023/06/23 00:47:01;;;;;;;16.00;13.30;;;;;;;;;;5076283;28;20105;-75
2023/06/23 00:49:27;;;;;;;20.63;13.60;;;;;;;;;;5092628;28;20032;-75
2023/06/23 00:51:54;;;;;;;18.42;13.80;;;;;;;;;;5093177;28;20042;-75
2023/06/23 00:54:23;;;;;;;18.38;14.25;;;;;;;;;;5092918;28;20059;-75
2023/06/23 00:56:49;;;;;;;18.65;13.55;;;;;;;;;;5093668;28;20097;-75
2023/06/23 00:59:16;;;;;;;19.02;14.70;;;;;;;;;;5092691;28;20043;-75
2023/06/23 01:01:42;;;;;;;19.40;14.80;;;;;;;;;;5092704;28;20109;-75
2023/06/23 01:04:08;;;;;;;21.27;14.90;;;;;;;;;;5075143;28;20047;-75
2023/06/23 01:06:40;;;;;;;21.50;14.93;;;;;;;;;;5093332;28;20048;-75
2023/06/23 01:09:25;;;;;;;25.42;16.08;;;;;;;;;;5092725;28;20079;-75
2023/06/23 01:11:51;;;;;;;21.08;16.38;;;;;;;;;;5078714;28;20507;-76
2023/06/23 01:14:22;;;;;;;26.20;17.63;;;;;;;;;;5092922;28;20439;-75
2023/06/23 01:16:53;;;;;;;24.58;17.50;;;;;;;;;;5092018;28;20071;-75
2023/06/23 01:19:32;;;;;;;20.10;15.35;;;;;;;;;;5094431;28;20115;-75
2023/06/23 01:21:59;;;;;;;23.60;18.45;;;;;;;;;;5093716;28;20554;-75
2023/06/23 01:24:37;;;;;;;22.05;17.15;;;;;;;;;;5092408;28;20044;-75
2023/06/23 01:27:30;;;;;;;25.02;17.70;;;;;;;;;;5092201;28;20123;-75
2023/06/23 01:29:57;;;;;;;27.63;19.90;;;;;;;;;;5069842;28;20547;-75
2023/06/23 01:32:28;;;;;;;26.70;19.48;;;;;;;;;;5092314;28;20088;-75
2023/06/23 01:34:59;;;;;;;26.30;19.67;;;;;;;;;;5092092;28;20032;-75
2023/06/23 01:37:32;;;;;;;30.95;20.58;;;;;;;;;;5092100;28;20039;-75
2023/06/23 01:39:59;;;;;;;26.05;19.38;;;;;;;;;;5092120;28;20036;-74
2023/06/23 01:42:31;;;;;;;27.38;19.73;;;;;;;;;;5092087;28;20040;-75
2023/06/23 01:45:00;;;;;;;28.00;21.70;;;;;;;;;;5075090;28;20044;-75
2023/06/23 01:47:30;;;;;;;26.60;19.83;;;;;;;;;;5075085;28;20040;-74
2023/06/23 01:49:58;;;;;;;28.20;21.52;;;;;;;;;;5091575;28;20032;-76
2023/06/23 01:52:25;;;;;;;26.58;19.17;;;;;;;;;;5093189;28;20036;-74
2023/06/23 01:54:53;;;;;;;26.90;19.08;;;;;;;;;;5075018;28;20480;-74
2023/06/23 01:57:20;;;;;;;29.38;18.95;;;;;;;;;;5093048;28;20047;-75
2023/06/23 01:59:48;;;;;;;28.35;21.33;;;;;;;;;;5091521;28;20391;-75
2023/06/23 02:02:15;;;;;;;27.13;20.55;;;;;;;;;;5088748;28;20087;-74
2023/06/23 02:04:44;;;;;;;28.25;20.95;;;;;;;;;;5090416;28;20047;-75
2023/06/23 02:07:11;;;;;;;28.73;21.33;;;;;;;;;;5090308;28;20047;-75
2023/06/23 02:09:38;;;;;;;30.33;21.13;;;;;;;;;;5092255;28;20031;-75
2023/06/23 02:12:06;;;;;;;27.63;19.90;;;;;;;;;;5089836;28;20045;-76
2023/06/23 02:14:32;;;;;;;29.15;21.35;;;;;;;;;;5091582;28;20069;-75
2023/06/23 02:16:59;;;;;;;24.33;17.25;;;;;;;;;;5091400;28;20393;-75
2023/06/23 02:19:27;;;;;;;23.55;17.40;;;;;;;;;;5092656;28;20089;-75
2023/06/23 02:21:53;;;;;;;34.95;23.15;;;;;;;;;;5091220;28;20093;-76
2023/06/23 02:24:20;;;;;;;27.08;20.45;;;;;;;;;;5092769;28;20042;-75
2023/06/23 02:26:47;;;;;;;29.58;22.20;;;;;;;;;;5091358;28;20070;-75
2023/06/23 02:29:14;;;;;;;29.85;20.73;;;;;;;;;;5091387;28;20043;-75
2023/06/23 02:31:40;;;;;;;26.48;18.98;;;;;;;;;;5091104;28;20511;-75
2023/06/23 02:34:06;;;;;;;32.20;22.35;;;;;;;;;;5091540;28;20542;-75
2023/06/23 02:36:42;;;;;;;28.27;23.40;;;;;;;;;;5091423;28;20036;-75
2023/06/23 02:39:09;;;;;;;30.67;23.58;;;;;;;;;;5091205;28;20157;-75
2023/06/23 02:41:36;;;;;;;35.20;25.75;;;;;;;;;;5074547;28;20497;-75
2023/06/23 02:44:06;;;;;;;34.42;24.50;;;;;;;;;;5090887;28;20047;-75
2023/06/23 02:46:34;;;;;;;30.92;23.33;;;;;;;;;;5090900;28;20050;-75
2023/06/23 02:49:04;;;;;;;30.52;23.27;;;;;;;;;;5091867;28;20051;-74
2023/06/23 02:51:30;;;;;;;29.85;23.95;;;;;;;;;;5090892;28;20039;-76
2023/06/23 02:54:01;;;;;;;42.55;31.70;;;;;;;;;;5090606;28;20031;-75
2023/06/23 02:56:27;;;;;;;40.33;29.77;;;;;;;;;;5091204;28;20040;-75
2023/06/23 02:58:58;;;;;;;45.85;33.85;;;;;;;;;;5090447;28;20115;-75
2023/06/23 03:01:26;;;;;;;43.22;32.78;;;;;;;;;;5092539;28;20043;-75
2023/06/23 03:03:54;;;;;;;39.13;29.10;;;;;;;;;;5073850;28;20056;-75
2023/06/23 03:06:20;;;;;;;34.13;25.98;;;;;;;;;;5073878;28;20157;-75
2023/06/23 03:08:50;;;;;;;44.42;32.72;;;;;;;;;;5090333;28;20044;-75
2023/06/23 03:11:20;;;;;;;47.95;36.03;;;;;;;;;;5091195;28;20044;-76
2023/06/23 03:13:46;;;;;;;53.67;39.42;;;;;;;;;;5090442;28;20044;-75
2023/06/23 03:16:15;;;;;;;56.60;41.70;;;;;;;;;;5091230;28;20532;-75
2023/06/23 03:18:43;;;;;;;53.55;40.65;;;;;;;;;;5090851;28;20606;-75
2023/06/23 03:21:09;;;;;;;57.05;40.95;;;;;;;;;;5090571;28;20040;-75
2023/06/23 03:23:37;;;;;;;64.97;44.50;;;;;;;;;;5090818;28;20076;-75
2023/06/23 03:26:04;;;;;;;57.67;41.40;;;;;;;;;;5090594;28;20036;-75
2023/06/23 03:28:32;;;;;;;61.55;42.50;;;;;;;;;;5093730;28;20140;-75
2023/06/23 03:31:00;;;;;;;64.20;44.00;;;;;;;;;;5094552;28;20512;-75
2023/06/23 06:42:36;;;;;;;7.93;5.63;;;;;;;;;;5071833;28;20109;-76
2023/06/23 06:45:03;;;;;;;8.23;5.82;;;;;;;;;;5073224;28;20048;-76
2023/06/23 06:47:29;;;;;;;6.90;4.50;;;;;;;;;;5091763;28;20500;-76
2023/06/23 06:49:58;;;;;;;10.38;5.88;;;;;;;;;;5090968;28;20039;-76
2023/06/23 06:52:25;;;;;;;8.43;5.60;;;;;;;;;;5091446;28;20044;-76
2023/06/23 06:54:52;;;;;;;7.85;5.15;;;;;;;;;;5090812;28;20047;-76
2023/06/23 06:57:19;;;;;;;7.43;5.40;;;;;;;;;;5091211;28;20039;-76
2023/06/23 06:59:45;;;;;;;9.52;6.13;;;;;;;;;;5090645;28;20051;-75
2023/06/23 07:02:12;;;;;;;9.57;6.05;;;;;;;;;;5090269;28;20039;-75
2023/06/23 07:04:39;;;;;;;14.10;6.82;;;;;;;;;;5073724;28;20044;-75
2023/06/23 07:07:06;;;;;;;8.18;5.82;;;;;;;;;;5090966;28;20071;-76
2023/06/23 07:09:32;;;;;;;10.45;6.15;;;;;;;;;;5073593;28;20068;-76
2023/06/23 07:11:59;;;;;;;9.63;6.28;;;;;;;;;;5090707;28;20032;-75
2023/06/23 07:14:25;;;;;;;9.25;6.45;;;;;;;;;;5091127;28;20036;-75
2023/06/23 07:16:51;;;;;;;8.98;6.10;;;;;;;;;;5090386;28;20089;-75
2023/06/23 07:19:17;;;;;;;9.32;6.10;;;;;;;;;;5091962;28;20104;-75
2023/06/23 07:21:43;;;;;;;8.57;5.70;;;;;;;;;;5090372;28;20093;-75
2023/06/23 07:24:09;;;;;;;8.27;5.45;;;;;;;;;;5090529;28;20040;-75
2023/06/23 07:26:37;;;;;;;6.45;5.47;;;;;;;;;;5091559;28;20036;-75
2023/06/23 07:29:03;;;;;;;8.80;5.22;;;;;;;;;;5090764;28;20043;-75
2023/06/23 07:31:30;;;;;;;7.03;5.03;;;;;;;;;;5090222;28;20035;-75
2023/06/23 07:33:56;;;;;;;6.45;4.57;;;;;;;;;;5092103;28;20396;-76
2023/06/23 07:36:37;;;;;;;5.57;4.45;;;;;;;;;;5090425;28;20040;-75
2023/06/23 07:39:03;;;;;;;7.15;4.93;;;;;;;;;;5092290;28;20074;-76
2023/06/23 07:41:29;;;;;;;8.07;4.60;;;;;;;;;;5090247;28;20032;-75
2023/06/23 07:43:55;;;;;;;5.63;4.55;;;;;;;;;;5090563;28;20054;-75
2023/06/23 07:46:21;;;;;;;5.35;4.40;;;;;;;;;;5090665;28;20488;-76
2023/06/23 07:48:47;;;;;;;6.45;4.60;;;;;;;;;;5091494;28;20043;-74
2023/06/23 07:51:13;;;;;;;7.85;4.90;;;;;;;;;;5091485;28;20508;-74
2023/06/23 07:53:39;;;;;;;7.43;4.88;;;;;;;;;;5091510;28;20487;-74
2023/06/23 07:56:06;;;;;;;5.38;4.05;;;;;;;;;;5090736;28;20560;-74
2023/06/23 07:58:32;;;;;;;5.88;4.32;;;;;;;;;;5090450;28;20075;-74
2023/06/23 08:00:58;;;;;;;5.82;4.32;;;;;;;;;;5090537;28;20043;-74
2023/06/23 08:03:24;;;;;;;10.10;4.55;;;;;;;;;;5090350;28;20496;-74
2023/06/23 08:05:50;;;;;;;6.53;4.40;;;;;;;;;;5090122;28;20458;-74
2023/06/23 08:08:16;;;;;;;6.80;4.22;;;;;;;;;;5090235;28;20078;-74
2023/06/23 08:10:43;;;;;;;5.57;3.90;;;;;;;;;;5090219;28;20508;-73
2023/06/23 08:13:09;;;;;;;4.10;3.50;;;;;;;;;;5092507;28;20225;-74
2023/06/23 08:15:36;;;;;;;4.03;3.13;;;;;;;;;;5093324;28;20043;-74
2023/06/23 08:18:02;;;;;;;5.43;3.50;;;;;;;;;;5093994;28;20051;-76
2023/06/23 08:20:29;;;;;;;7.10;3.58;;;;;;;;;;5093672;28;20044;-76
2023/06/23 08:22:55;;;;;;;7.38;4.15;;;;;;;;;;5094512;28;20043;-76
2023/06/23 08:25:21;;;;;;;6.38;3.90;;;;;;;;;;5093823;28;20040;-75
2023/06/23 08:27:47;;;;;;;5.78;3.35;;;;;;;;;;5093128;28;20040;-76
2023/06/23 08:30:15;;;;;;;4.40;2.08;;;;;;;;;;5077185;28;20549;-76
2023/06/23 08:32:41;;;;;;;4.38;2.70;;;;;;;;;;5093154;28;20040;-76
2023/06/23 08:35:07;;;;;;;5.65;3.63;;;;;;;;;;5093651;28;20032;-76
2023/06/23 08:37:33;;;;;;;5.03;3.90;;;;;;;;;;5093500;28;20051;-76
2023/06/23 08:39:59;;;;;;;7.47;4.93;;;;;;;;;;5076356;28;20044;-75
2023/06/23 08:42:26;;;;;;;6.28;4.10;;;;;;;;;;5093190;28;20067;-76
2023/06/23 08:44:52;;;;;;;4.72;2.80;;;;;;;;;;5093188;28;20102;-75
2023/06/23 08:47:20;;;;;;;6.43;3.20;;;;;;;;;;5093283;28;20109;-75
2023/06/23 08:49:47;;;;;;;6.28;3.70;;;;;;;;;;5092629;28;20040;-76
2023/06/23 08:52:14;;;;;;;4.78;3.80;;;;;;;;;;5093124;28;20071;-76
2023/06/23 08:54:40;;;;;;;5.40;3.58;;;;;;;;;;5093056;28;20467;-75
2023/06/23 08:57:06;;;;;;;5.88;3.67;;;;;;;;;;5076730;28;20423;-76
2023/06/23 08:59:33;;;;;;;6.07;4.70;;;;;;;;;;5093393;28;20396;-76
2023/06/23 09:01:59;;;;;;;7.25;4.75;;;;;;;;;;5092810;28;20055;-76
2023/06/23 09:04:25;;;;;;;19.55;5.72;;;;;;;;;;5093202;28;20043;-75
2023/06/23 09:06:51;;;;;;;7.13;4.55;;;;;;;;;;5092457;28;20043;-75
2023/06/23 09:09:18;;;;;;;6.47;4.13;;;;;;;;;;5093171;28;20040;-75
2023/06/23 09:11:45;;;;;;;5.80;4.10;;;;;;;;;;5092515;28;20044;-75
2023/06/23 09:14:11;;;;;;;7.60;3.83;;;;;;;;;;5094076;28;20039;-75
2023/06/23 09:16:39;;;;;;;6.07;3.47;;;;;;;;;;5092598;28;20036;-75
2023/06/23 09:19:06;;;;;;;5.70;3.08;;;;;;;;;;5092493;28;20044;-74
2023/06/23 09:21:34;;;;;;;6.47;3.42;;;;;;;;;;5092616;28;20042;-75
2023/06/23 09:24:04;;;;;;;5.85;4.50;;;;;;;;;;5092459;28;20496;-75
2023/06/23 09:26:44;;;;;;;5.93;4.38;;;;;;;;;;5093325;28;20043;-75
2023/06/23 09:29:15;;;;;;;15.23;5.25;;;;;;;;;;5092775;28;20547;-76
2023/06/23 09:31:41;;;;;;;6.28;4.05;;;;;;;;;;5075821;28;20484;-75
2023/06/23 09:34:07;;;;;;;7.82;3.42;;;;;;;;;;5092555;28;20047;-75
2023/06/23 09:36:34;;;;;;;6.10;3.90;;;;;;;;;;5093577;28;20036;-75
2023/06/23 09:39:01;;;;;;;7.72;3.70;;;;;;;;;;5075258;28;20123;-75
2023/06/23 09:41:31;;;;;;;5.60;3.95;;;;;;;;;;5092446;28;20040;-75
2023/06/23 09:43:58;;;;;;;10.32;3.90;;;;;;;;;;5091947;28;20390;-75
2023/06/23 09:46:24;;;;;;;5.35;3.55;;;;;;;;;;5092259;28;20040;-74
2023/06/23 09:48:51;;;;;;;5.55;3.72;;;;;;;;;;5092996;28;20040;-76
2023/06/23 09:51:21;;;;;;;5.90;3.55;;;;;;;;;;5092146;28;20067;-75
2023/06/23 09:53:48;;;;;;;8.80;3.85;;;;;;;;;;5091555;28;20038;-75
2023/06/23 09:56:15;;;;;;;5.57;3.85;;;;;;;;;;5092249;28;20532;-75
2023/06/23 09:58:42;;;;;;;5.78;3.90;;;;;;;;;;5091828;28;20087;-75
2023/06/23 10:01:17;;;;;;;6.70;3.35;;;;;;;;;;5091651;28;20093;-74
2023/06/23 10:03:45;;;;;;;9.85;3.70;;;;;;;;;;5091839;28;20092;-76
2023/06/23 10:06:40;;;;;;;5.90;3.70;;;;;;;;;;5093108;28;20393;-76
2023/06/23 10:09:07;;;;;;;;;;;;;;;;;;5066582;28;20052;-75
2023/06/23 10:11:37;;;;;;;14.18;3.70;;;;;;;;;;5091797;28;19916;-76
2023/06/23 10:14:05;;;;;;;5.18;2.92;;;;;;;;;;5077470;28;20043;-75
2023/06/23 10:16:32;;;;;;;7.82;3.15;;;;;;;;;;5091600;28;20052;-76
2023/06/23 10:18:58;;;;;;;4.68;2.70;;;;;;;;;;5091211;28;20055;-75
2023/06/23 10:21:24;;;;;;;7.53;2.97;;;;;;;;;;5092864;28;20043;-76
2023/06/23 10:23:51;;;;;;;6.65;3.15;;;;;;;;;;5091174;28;20051;-75
2023/06/23 10:26:17;;;;;;;7.82;2.85;;;;;;;;;;5074813;28;20391;-74
2023/06/23 10:28:46;;;;;;;6.18;2.80;;;;;;;;;;5091296;28;20106;-72
2023/06/23 10:31:12;;;;;;;7.13;3.20;;;;;;;;;;5091084;28;20032;-73
2023/06/23 10:33:39;;;;;;;6.50;3.50;;;;;;;;;;5091105;28;20040;-72
2023/06/23 10:36:07;;;;;;;8.23;3.50;;;;;;;;;;5090685;28;20039;-73
2023/06/23 10:38:33;;;;;;;8.13;3.35;;;;;;;;;;5091159;28;20044;-73
2023/06/23 10:41:00;;;;;;;5.70;3.30;;;;;;;;;;5091984;28;20039;-73
2023/06/23 10:43:30;;;;;;;6.93;3.50;;;;;;;;;;5091086;28;20044;-72
2023/06/23 10:45:57;;;;;;;6.13;4.00;;;;;;;;;;5090853;28;20093;-73
2023/06/23 10:48:23;;;;;;;6.53;3.30;;;;;;;;;;5092367;28;20127;-74
2023/06/23 10:50:50;;;;;;;6.47;3.35;;;;;;;;;;5059459;28;20477;-72
2023/06/23 10:53:16;;;;;;;4.78;3.40;;;;;;;;;;5091617;28;20040;-74
2023/06/23 10:55:46;;;;;;;5.57;3.35;;;;;;;;;;5091464;28;20036;-74
2023/06/23 10:58:19;;;;;;;6.32;3.40;;;;;;;;;;5092276;28;20485;-74
2023/06/23 11:01:05;;;;;;;5.72;3.47;;;;;;;;;;5092685;28;20461;-74
2023/06/23 11:03:33;;;;;;;6.10;3.60;;;;;;;;;;5094345;28;20028;-74
2023/06/23 11:06:00;;;;;;;6.03;3.53;;;;;;;;;;5091804;28;20051;-73
2023/06/23 11:08:34;;;;;;;17.48;3.97;;;;;;;;;;5091215;28;20390;-73
2023/06/23 11:11:10;;;;;;;12.95;4.10;;;;;;;;;;5074052;28;20047;-73
2023/06/23 11:13:41;;;;;;;9.05;3.80;;;;;;;;;;5074093;28;20072;-73
2023/06/23 11:16:12;;;;;;;7.10;3.85;;;;;;;;;;5090901;28;20043;-73
2023/06/23 11:18:47;;;;;;;9.10;3.85;;;;;;;;;;5092139;28;20412;-73
2023/06/23 11:21:18;;;;;;;5.35;3.70;;;;;;;;;;5073725;28;20043;-72
2023/06/23 11:24:03;;;;;;;6.00;3.88;;;;;;;;;;5090588;28;20040;-73
2023/06/23 11:26:30;;;;;;;7.05;3.53;;;;;;;;;;5077411;28;20047;-72
2023/06/23 11:28:56;;;;;;;5.40;3.40;;;;;;;;;;5090771;28;20400;-74
2023/06/23 11:31:27;;;;;;;9.32;3.30;;;;;;;;;;5091862;28;20036;-72
2023/06/23 11:33:56;;;;;;;9.32;3.55;;;;;;;;;;5090651;28;20044;-73
2023/06/23 11:36:25;;;;;;;8.02;3.00;;;;;;;;;;5090219;28;20067;-73
2023/06/23 11:38:51;;;;;;;5.68;3.38;;;;;;;;;;5073930;28;20423;-73
2023/06/23 11:41:30;;;;;;;7.03;3.22;;;;;;;;;;5090326;28;20074;-76
2023/06/23 11:43:57;;;;;;;8.55;3.00;;;;;;;;;;5090331;28;20105;-75
2023/06/23 11:46:24;;;;;;;16.85;3.55;;;;;;;;;;5090619;28;20036;-75
2023/06/23 11:48:50;;;;;;;4.15;2.67;;;;;;;;;;5092192;28;20094;-75
2023/06/23 11:51:17;;;;;;;7.13;2.95;;;;;;;;;;5077251;28;20082;-75
2023/06/23 11:53:44;;;;;;;5.20;3.20;;;;;;;;;;5094332;28;20036;-74
2023/06/23 11:56:14;;;;;;;5.18;2.90;;;;;;;;;;5093941;28;20067;-73
2023/06/23 11:58:41;;;;;;;4.68;3.00;;;;;;;;;;5094221;28;20048;-73
2023/06/23 12:01:09;;;;;;;7.50;2.90;;;;;;;;;;5093721;28;20044;-73
2023/06/23 12:03:36;;;;;;;9.18;3.22;;;;;;;;;;5094239;28;20036;-73
2023/06/23 12:06:02;;;;;;;7.80;3.08;;;;;;;;;;5093886;28;20435;-73
2023/06/23 12:08:29;;;;;;;20.30;3.42;;;;;;;;;;5093973;28;20040;-73
2023/06/23 12:10:56;;;;;;;8.38;2.97;;;;;;;;;;5093918;28;20036;-73
2023/06/23 12:13:22;;;;;;;7.00;2.80;;;;;;;;;;5076774;28;20864;-73
2023/06/23 12:15:48;;;;;;;30.08;5.03;;;;;;;;;;5094049;28;20552;-73
2023/06/23 12:18:14;;;;;;;21.55;3.85;;;;;;;;;;5094554;28;20118;-73
2023/06/23 12:20:42;;;;;;;6.88;2.90;;;;;;;;;;5093459;28;20111;-74
2023/06/23 12:23:10;;;;;;;6.85;2.90;;;;;;;;;;5093508;28;20122;-73
2023/06/23 12:25:41;;;;;;;12.48;3.70;;;;;;;;;;5093952;28;20043;-74
2023/06/23 12:28:17;;;;;;;7.40;3.00;;;;;;;;;;5094453;28;20040;-73
2023/06/23 12:30:44;;;;;;;29.65;4.93;;;;;;;;;;5093501;28;20123;-73
2023/06/23 12:33:17;;;;;;;21.80;3.97;;;;;;;;;;5093135;28;20052;-73
2023/06/23 12:35:56;;;;;;;7.90;2.85;;;;;;;;;;5093692;28;20042;-73
2023/06/23 12:38:23;;;;;;;8.85;3.30;;;;;;;;;;5079542;28;20054;-73
2023/06/23 12:40:49;;;;;;;5.47;2.53;;;;;;;;;;5093409;28;20062;-73
2023/06/23 12:43:15;;;;;;;5.10;2.72;;;;;;;;;;5075728;28;20098;-72
2023/06/23 12:45:41;;;;;;;4.43;2.60;;;;;;;;;;5093208;28;20040;-73
2023/06/23 12:48:08;;;;;;;6.55;2.70;;;;;;;;;;5092989;28;20135;-72
2023/06/23 12:50:38;;;;;;;5.63;2.65;;;;;;;;;;5093149;28;20068;-72
2023/06/23 12:53:04;;;;;;;4.68;2.80;;;;;;;;;;5094415;28;20040;-73
2023/06/23 12:55:30;;;;;;;10.35;3.10;;;;;;;;;;5092600;28;20040;-72
2023/06/23 12:57:56;;;;;;;23.80;3.92;;;;;;;;;;5093145;28;20048;-74
2023/06/23 13:00:24;;;;;;;5.43;2.67;;;;;;;;;;5091599;28;20502;-72
2023/06/23 13:02:52;;;;;;;5.82;2.78;;;;;;;;;;5094251;28;20055;-73
2023/06/23 13:05:18;;;;;;;4.65;2.80;;;;;;;;;;5092289;28;20044;-73
2023/06/23 13:07:44;;;;;;;4.75;2.90;;;;;;;;;;5092921;28;20040;-73
2023/06/23 13:10:11;;;;;;;6.03;2.50;;;;;;;;;;5092241;28;20126;-73
2023/06/23 13:12:37;;;;;;;4.80;2.65;;;;;;;;;;5075981;28;20089;-73
2023/06/23 13:15:04;;;;;;;4.03;2.67;;;;;;;;;;5092437;28;20063;-72
2023/06/23 13:17:33;;;;;;;5.85;2.60;;;;;;;;;;5092340;28;20091;-73
2023/06/23 13:19:59;;;;;;;6.13;2.65;;;;;;;;;;5092432;28;20094;-72
2023/06/23 13:22:25;;;;;;;3.70;2.33;;;;;;;;;;5092291;28;20046;-72
2023/06/23 13:24:56;;;;;;;10.32;2.78;;;;;;;;;;5092446;28;20089;-73
2023/06/23 13:27:22;;;;;;;6.30;2.60;;;;;;;;;;5093483;28;20363;-72
2023/06/23 13:29:48;;;;;;;5.40;2.58;;;;;;;;;;5092487;28;20063;-73
2023/06/23 13:32:14;;;;;;;5.97;2.58;;;;;;;;;;5091951;28;20040;-73
2023/06/23 13:34:40;;;;;;;5.05;2.47;;;;;;;;;;5092519;28;20043;-72
2023/06/23 13:37:06;;;;;;;6.93;2.50;;;;;;;;;;5092299;28;20047;-72
2023/06/23 13:39:34;;;;;;;6.05;2.40;;;;;;;;;;5091791;28;20056;-72
2023/06/23 13:42:00;;;;;;;4.60;2.53;;;;;;;;;;5092245;28;20048;-72
2023/06/23 13:44:26;;;;;;;5.50;2.70;;;;;;;;;;5091531;28;20185;-72
2023/06/23 13:46:52;;;;;;;7.15;2.70;;;;;;;;;;5092463;28;20516;-72
2023/06/23 13:49:19;;;;;;;4.40;2.60;;;;;;;;;;5091745;28;20039;-72
2023/06/23 13:51:45;;;;;;;10.15;3.22;;;;;;;;;;5092057;28;20123;-72
2023/06/23 13:54:11;;;;;;;20.27;3.55;;;;;;;;;;5091824;28;20040;-72
2023/06/23 13:56:37;;;;;;;4.35;2.80;;;;;;;;;;5092621;28;20046;-72
2023/06/23 13:59:04;;;;;;;7.43;2.72;;;;;;;;;;5092260;28;20488;-72
2023/06/23 14:01:30;;;;;;;18.83;3.60;;;;;;;;;;5074444;28;20044;-73
2023/06/23 14:03:56;;;;;;;7.55;3.20;;;;;;;;;;5091848;28;20038;-72
2023/06/23 14:06:22;;;;;;;7.72;2.85;;;;;;;;;;5091256;28;20044;-72
2023/06/23 14:08:52;;;;;;;5.28;2.92;;;;;;;;;;5091445;28;20050;-73
2023/06/23 14:11:18;;;;;;;13.98;3.28;;;;;;;;;;5091421;28;20393;-72
2023/06/23 14:13:44;;;;;;;7.88;2.80;;;;;;;;;;5092686;28;20069;-72
2023/06/23 14:16:15;;;;;;;5.18;2.78;;;;;;;;;;5091557;28;20043;-72
2023/06/23 14:18:41;;;;;;;5.75;2.88;;;;;;;;;;5091171;28;20102;-72
2023/06/23 14:21:07;;;;;;;4.93;2.63;;;;;;;;;;5091278;28;20092;-73
2023/06/23 14:23:33;;;;;;;6.43;2.55;;;;;;;;;;5091220;28;20040;-75
2023/06/23 14:25:59;;;;;;;9.65;3.13;;;;;;;;;;5091181;28;20044;-72
2023/06/23 14:28:27;;;;;;;11.02;2.42;;;;;;;;;;5091105;28;20046;-73
2023/06/23 14:30:54;;;;;;;11.20;2.90;;;;;;;;;;5092497;28;20039;-72
2023/06/23 14:33:20;;;;;;;5.90;2.55;;;;;;;;;;5091207;28;20051;-73
2023/06/23 14:35:46;;;;;;;8.55;2.70;;;;;;;;;;5091111;28;20036;-73
2023/06/23 14:38:12;;;;;;;5.90;2.50;;;;;;;;;;5091027;28;20040;-72
2023/06/23 14:40:40;;;;;;;7.78;2.70;;;;;;;;;;5074007;28;20051;-72
2023/06/23 14:43:06;;;;;;;14.95;3.20;;;;;;;;;;5091014;28;20102;-72
2023/06/23 14:45:40;;;;;;;6.38;2.63;;;;;;;;;;5090982;28;20504;-72
2023/06/23 14:48:06;;;;;;;5.57;2.53;;;;;;;;;;5092137;28;20048;-72
2023/06/23 14:50:33;;;;;;;39.20;4.40;;;;;;;;;;5073846;28;20047;-73
2023/06/23 14:52:59;;;;;;;8.30;2.70;;;;;;;;;;5092159;28;20036;-73
2023/06/23 14:55:26;;;;;;;6.50;2.67;;;;;;;;;;5090562;28;20040;-72
2023/06/23 14:57:52;;;;;;;4.60;2.80;;;;;;;;;;5090970;28;20040;-73
2023/06/23 15:00:19;;;;;;;4.40;2.70;;;;;;;;;;5092202;28;20051;-72
2023/06/23 15:02:45;;;;;;;7.78;2.80;;;;;;;;;;5090599;28;20054;-72
2023/06/23 15:05:11;;;;;;;4.95;2.63;;;;;;;;;;5090737;28;20035;-72
2023/06/23 15:07:37;;;;;;;11.70;2.80;;;;;;;;;;5090620;28;20040;-73
2023/06/23 15:10:03;;;;;;;5.18;2.47;;;;;;;;;;5091096;28;20066;-73
2023/06/23 15:12:29;;;;;;;4.03;2.50;;;;;;;;;;5091001;28;20123;-73
2023/06/23 15:14:56;;;;;;;6.13;2.63;;;;;;;;;;5090929;28;20040;-73
2023/06/23 15:17:24;;;;;;;13.32;3.55;;;;;;;;;;5073819;28;20043;-72
2023/06/23 15:19:52;;;;;;;6.38;2.70;;;;;;;;;;5090758;28;20043;-73
2023/06/23 15:22:18;;;;;;;5.68;2.60;;;;;;;;;;5090777;28;20047;-74
2023/06/23 15:24:44;;;;;;;5.30;2.55;;;;;;;;;;5077289;28;20074;-73
2023/06/23 15:27:11;;;;;;;14.77;3.00;;;;;;;;;;5078008;28;20104;-73
2023/06/23 15:29:37;;;;;;;8.38;2.70;;;;;;;;;;5094494;28;20040;-71
2023/06/23 15:32:03;;;;;;;8.35;2.40;;;;;;;;;;5067702;28;20040;-74
2023/06/23 15:34:31;;;;;;;7.18;2.60;;;;;;;;;;5090876;28;20093;-73
2023/06/23 15:36:57;;;;;;;4.57;2.50;;;;;;;;;;5094790;28;20044;-72
2023/06/23 15:39:25;;;;;;;9.50;3.13;;;;;;;;;;5095126;28;20118;-72
2023/06/23 15:41:53;;;;;;;5.13;2.95;;;;;;;;;;5094640;28;20504;-72
2023/06/23 15:44:19;;;;;;;6.13;2.88;;;;;;;;;;5094485;28;20056;-73
2023/06/23 15:46:46;;;;;;;5.60;2.80;;;;;;;;;;5077029;28;20058;-72
2023/06/23 15:49:12;;;;;;;6.55;2.60;;;;;;;;;;5095610;28;20051;-73
2023/06/23 15:51:43;;;;;;;4.53;2.70;;;;;;;;;;5094319;28;20036;-73
2023/06/23 15:54:11;;;;;;;4.72;3.05;;;;;;;;;;5094774;28;20131;-73
2023/06/23 15:56:37;;;;;;;6.18;2.78;;;;;;;;;;5077322;28;20059;-73
2023/06/23 15:59:03;;;;;;;5.47;2.58;;;;;;;;;;5094211;28;20072;-73
2023/06/23 16:01:29;;;;;;;5.20;2.70;;;;;;;;;;5094025;28;20077;-73
2023/06/23 16:03:55;;;;;;;9.88;2.58;;;;;;;;;;5094703;28;20370;-73
2023/06/23 16:06:21;;;;;;;5.03;2.50;;;;;;;;;;5094065;28;20039;-73
2023/06/23 16:08:48;;;;;;;5.88;2.80;;;;;;;;;;5093610;28;20511;-73
2023/06/23 16:11:14;;;;;;;5.65;2.50;;;;;;;;;;5094095;28;20043;-72
2023/06/23 16:13:40;;;;;;;10.35;2.50;;;;;;;;;;5076620;28;20043;-72
2023/06/23 16:16:06;;;;;;;7.57;2.58;;;;;;;;;;5093998;28;20074;-73
2023/06/23 16:18:32;;;;;;;5.65;2.55;;;;;;;;;;5093693;28;20110;-73
2023/06/23 16:20:59;;;;;;;6.57;2.58;;;;;;;;;;5093831;28;20048;-72
2023/06/23 16:23:25;;;;;;;7.15;2.58;;;;;;;;;;5095206;28;20044;-73
2023/06/23 16:25:51;;;;;;;5.00;2.70;;;;;;;;;;5093630;28;20044;-72
2023/06/23 16:28:17;;;;;;;6.95;2.72;;;;;;;;;;5093850;28;20473;-72
2023/06/23 16:30:43;;;;;;;9.23;2.83;;;;;;;;;;5093320;28;20048;-73
2023/06/23 16:33:10;;;;;;;5.60;2.40;;;;;;;;;;5093888;28;20546;-72
2023/06/23 16:35:36;;;;;;;5.82;2.70;;;;;;;;;;5094390;28;20033;-72
2023/06/23 16:38:02;;;;;;;5.00;2.25;;;;;;;;;;5093665;28;20404;-73
2023/06/23 16:40:28;;;;;;;7.10;2.80;;;;;;;;;;5093547;28;20044;-73
2023/06/23 16:42:59;;;;;;;5.75;2.47;;;;;;;;;;5093077;28;20543;-73
2023/06/23 16:45:25;;;;;;;7.85;2.72;;;;;;;;;;5093475;28;20047;-72
2023/06/23 16:47:51;;;;;;;10.18;3.00;;;;;;;;;;5093009;28;20052;-73
2023/06/23 16:50:18;;;;;;;12.63;2.90;;;;;;;;;;5076657;28;20078;-73
2023/06/23 16:52:44;;;;;;;6.80;2.78;;;;;;;;;;5092924;28;20040;-72
2023/06/23 16:55:10;;;;;;;5.90;3.15;;;;;;;;;;5094433;28;20055;-73
2023/06/23 16:57:36;;;;;;;5.40;2.95;;;;;;;;;;5094147;28;20040;-73
2023/06/23 17:00:05;;;;;;;6.20;2.80;;;;;;;;;;5094242;28;20427;-72
2023/06/23 17:02:31;;;;;;;8.00;2.40;;;;;;;;;;5093208;28;20043;-72
2023/06/23 17:04:57;;;;;;;16.65;3.20;;;;;;;;;;5092381;28;20051;-72
2023/06/23 17:07:24;;;;;;;6.30;2.70;;;;;;;;;;5075940;28;20123;-72
2023/06/23 17:09:50;;;;;;;6.18;2.55;;;;;;;;;;5092425;28;20211;-72
2023/06/23 17:12:16;;;;;;;3.35;2.20;;;;;;;;;;5092656;28;20043;-72
2023/06/23 17:14:43;;;;;;;4.93;2.53;;;;;;;;;;5092690;28;20388;-72
2023/06/23 17:17:09;;;;;;;5.88;2.58;;;;;;;;;;5092838;28;20043;-73
2023/06/23 17:19:35;;;;;;;10.23;3.10;;;;;;;;;;5092423;28;20065;-72
2023/06/23 17:22:01;;;;;;;3.85;2.70;;;;;;;;;;5092353;28;20126;-72
2023/06/23 17:24:27;;;;;;;10.70;2.60;;;;;;;;;;5092493;28;20048;-72
2023/06/23 17:26:53;;;;;;;5.28;2.60;;;;;;;;;;5092019;28;20028;-72
2023/06/23 17:29:19;;;;;;;4.53;2.55;;;;;;;;;;5093809;28;20068;-72
2023/06/23 17:31:45;;;;;;;4.82;2.65;;;;;;;;;;5093439;28;20036;-72
2023/06/23 17:34:11;;;;;;;4.28;2.38;;;;;;;;;;5075469;28;20058;-72
2023/06/23 17:36:39;;;;;;;6.45;2.70;;;;;;;;;;5092710;28;20523;-74
2023/06/23 17:39:05;;;;;;;5.70;2.67;;;;;;;;;;5092255;28;20123;-74
2023/06/23 17:41:31;;;;;;;4.07;2.28;;;;;;;;;;5093249;28;20512;-74
2023/06/23 17:43:57;;;;;;;5.07;2.40;;;;;;;;;;5092202;28;20052;-75
2023/06/23 17:46:23;;;;;;;5.68;2.70;;;;;;;;;;5074756;28;20040;-75